Time;durP1;ratioP1;P1;durP2;ratioP2;P2;SDS_P1;SDS_P2;PMS_P1;PMS_P2;Temp;Humidity;BMP_temperature;BMP_pressure;BME280_temperature;BME280_humidity;BME280_pressure;Samples;Min_cycle;Max_cycle;Signal;HPM_P1;HPM_P2
2022/12/23 00:01:21;;;;;;;0.10;0.10;;;8.50;99.90;7.40;95832.00;;;;5086250;28;20205;-72
2022/12/23 00:03:49;;;;;;;0.10;0.10;;;8.50;99.90;7.40;95829.00;;;;5084627;28;20194;-72
2022/12/23 00:06:20;;;;;;;0.10;0.10;;;8.50;99.90;7.40;95843.00;;;;5078945;28;20217;-72
2022/12/23 00:08:48;;;;;;;0.10;0.10;;;8.50;99.90;7.40;95829.00;;;;5075888;28;20206;-72
2022/12/23 00:11:19;;;;;;;0.10;0.10;;;8.50;99.90;7.40;95822.00;;;;5084786;28;20211;-73
2022/12/23 00:16:36;;;;;;;0.10;0.10;;;8.50;99.90;7.40;95822.00;;;;5082859;28;20255;-73
2022/12/23 00:19:05;;;;;;;0.10;0.10;;;8.50;99.90;7.40;95814.00;;;;5089004;28;20221;-73
2022/12/23 00:21:34;;;;;;;0.10;0.10;;;8.60;99.90;7.40;95820.00;;;;5069565;28;20202;-73
2022/12/23 00:24:02;;;;;;;0.10;0.10;;;8.50;99.90;7.40;95811.00;;;;5081110;28;20208;-73
2022/12/23 00:26:31;;;;;;;0.10;0.10;;;8.50;99.90;7.40;95815.00;;;;5075663;28;20644;-73
2022/12/23 00:29:00;;;;;;;0.10;0.10;;;8.50;99.90;7.40;95816.00;;;;5077630;28;20230;-74
2022/12/23 00:31:28;;;;;;;0.10;0.10;;;8.50;99.90;7.40;95798.00;;;;5081111;28;20205;-74
2022/12/23 00:33:56;;;;;;;0.10;0.10;;;8.60;99.90;7.40;95781.00;;;;5081610;28;20198;-75
2022/12/23 00:36:27;;;;;;;0.00;0.00;;;8.50;99.90;7.40;95787.00;;;;5078043;28;20236;-74
2022/12/23 00:44:29;;;;;;;0.10;0.10;;;8.50;99.90;7.50;95778.00;;;;5072966;28;20254;-73
2022/12/23 00:46:57;;;;;;;0.00;0.00;;;8.60;99.90;7.50;95783.00;;;;5081103;28;20248;-73
2022/12/23 00:49:42;;;;;;;0.10;0.10;;;8.60;99.90;7.40;95760.00;;;;5082047;28;20213;-73
2022/12/23 00:52:14;;;;;;;0.10;0.10;;;8.50;99.90;7.40;95733.00;;;;5072910;28;20270;-73
2022/12/23 00:54:42;;;;;;;0.10;0.10;;;8.50;99.90;7.40;95762.00;;;;5072021;28;20204;-73
2022/12/23 00:57:11;;;;;;;0.10;0.10;;;8.50;99.90;7.40;95754.00;;;;5075880;28;20227;-73
2022/12/23 00:59:39;;;;;;;0.10;0.10;;;8.50;99.90;7.40;95760.00;;;;5078426;28;20218;-73
2022/12/23 01:07:41;;;;;;;0.10;0.10;;;8.50;99.90;7.40;95775.00;;;;5077462;28;20594;-74
2022/12/23 01:10:10;;;;;;;0.10;0.10;;;8.50;99.90;7.40;95782.00;;;;5071601;28;20224;-74
2022/12/23 01:12:39;;;;;;;0.00;0.00;;;8.50;99.90;7.40;95777.00;;;;5072192;28;20197;-74
2022/12/23 01:15:08;;;;;;;0.10;0.10;;;8.50;99.90;7.40;95758.00;;;;5079396;28;20197;-74
2022/12/23 01:17:36;;;;;;;0.10;0.10;;;8.50;99.90;7.40;95769.00;;;;5084468;28;20197;-74
2022/12/23 01:20:06;;;;;;;0.10;0.10;;;8.50;99.90;7.40;95764.00;;;;5079570;28;20240;-74
2022/12/23 01:22:34;;;;;;;0.10;0.10;;;8.50;99.90;7.40;95745.00;;;;5084217;28;20250;-74
2022/12/23 01:25:02;;;;;;;0.10;0.10;;;8.50;99.90;7.40;95763.00;;;;5073442;28;20202;-74
2022/12/23 01:27:30;;;;;;;0.10;0.10;;;8.50;99.90;7.40;95774.00;;;;5069316;28;20229;-74
2022/12/23 01:29:59;;;;;;;0.10;0.10;;;8.50;99.90;7.40;95744.00;;;;5072422;28;20496;-74
2022/12/23 01:32:27;;;;;;;0.08;0.08;;;8.50;99.90;7.40;95686.00;;;;5076145;28;20189;-74
2022/12/23 01:34:55;;;;;;;0.10;0.10;;;8.50;99.90;7.40;95769.00;;;;5080952;28;20208;-74
2022/12/23 01:37:23;;;;;;;0.10;0.10;;;8.50;99.90;7.40;95782.00;;;;5076504;28;20712;-74
2022/12/23 01:39:51;;;;;;;0.08;0.08;;;8.50;99.90;7.40;95775.00;;;;5073922;28;20225;-74
2022/12/23 01:45:16;;;;;;;0.10;0.10;;;8.50;99.90;7.40;95755.00;;;;5086038;28;20217;-73
2022/12/23 01:47:52;;;;;;;0.10;0.10;;;8.50;99.90;7.40;95767.00;;;;5080465;28;20220;-72
2022/12/23 01:50:25;;;;;;;0.10;0.10;;;8.50;99.90;7.30;95761.00;;;;5070640;28;20247;-73
2022/12/23 01:53:02;;;;;;;0.10;0.10;;;8.50;99.90;7.40;95754.00;;;;5070562;28;20198;-72
2022/12/23 01:55:44;;;;;;;0.10;0.10;;;8.50;99.90;7.40;95784.00;;;;5072022;28;20603;-73
2022/12/23 01:58:17;;;;;;;0.08;0.08;;;8.50;99.90;7.40;95755.00;;;;5079269;28;20193;-72
2022/12/23 02:03:42;;;;;;;0.10;0.10;;;8.50;99.90;7.30;95780.00;;;;5071094;28;20228;-72
2022/12/23 02:09:17;;;;;;;0.00;0.00;;;8.40;99.90;7.30;95773.00;;;;5032382;28;20728;-71
2022/12/23 02:12:13;;;;;;;0.10;0.10;;;8.40;99.90;7.40;95792.00;;;;5071894;28;20197;-72
2022/12/23 02:18:30;;;;;;;0.10;0.10;;;8.50;99.90;7.40;95771.00;;;;5079428;28;20238;-73
2022/12/23 02:21:28;;;;;;;0.03;0.03;;;8.50;99.90;7.40;95804.00;;;;5082527;28;20192;-74
2022/12/23 02:24:47;;;;;;;0.00;0.00;;;8.50;99.90;7.40;95802.00;;;;5068806;28;20193;-73
2022/12/23 02:27:26;;;;;;;0.10;0.10;;;8.50;99.90;7.30;95797.00;;;;5069189;28;20274;-73
2022/12/23 02:30:33;;;;;;;0.10;0.10;;;8.40;99.90;7.30;95789.00;;;;5076550;28;20701;-74
2022/12/23 02:33:35;;;;;;;0.10;0.10;;;8.40;99.90;7.20;95784.00;;;;5073016;28;20288;-73
2022/12/23 02:36:18;;;;;;;0.05;0.05;;;8.30;99.90;7.20;95775.00;;;;5080834;28;20243;-73
2022/12/23 02:38:58;;;;;;;0.10;0.10;;;8.30;99.90;7.20;95773.00;;;;5070297;28;20209;-71
2022/12/23 02:41:38;;;;;;;0.10;0.10;;;8.30;99.90;7.20;95776.00;;;;5076550;28;20676;-73
2022/12/23 02:44:18;;;;;;;0.10;0.10;;;8.30;99.90;7.20;95782.00;;;;5079718;28;20228;-72
2022/12/23 02:46:54;;;;;;;0.10;0.10;;;8.30;99.90;7.20;95776.00;;;;5082565;28;20985;-72
2022/12/23 02:49:29;;;;;;;0.10;0.10;;;8.30;99.90;7.20;95776.00;;;;5077048;28;20286;-72
2022/12/23 02:52:02;;;;;;;0.10;0.10;;;8.30;99.90;7.20;95764.00;;;;5083233;28;20619;-72
2022/12/23 02:54:36;;;;;;;0.10;0.10;;;8.30;99.90;7.30;95783.00;;;;5067710;28;20194;-72
2022/12/23 02:57:09;;;;;;;0.10;0.10;;;8.40;99.90;7.20;95782.00;;;;5067092;28;20224;-72
2022/12/23 02:59:43;;;;;;;0.10;0.10;;;8.40;99.90;7.30;95775.00;;;;5075311;28;20279;-72
2022/12/23 03:02:13;;;;;;;0.10;0.10;;;8.40;99.90;7.30;95775.00;;;;5064919;28;20205;-75
2022/12/23 03:04:41;;;;;;;0.10;0.10;;;8.40;99.90;7.30;95797.00;;;;5075133;28;20193;-74
2022/12/23 03:07:17;;;;;;;0.10;0.10;;;8.40;99.90;7.30;95816.00;;;;5082670;28;20221;-74
2022/12/23 03:09:59;;;;;;;0.10;0.10;;;8.40;99.90;7.30;95807.00;;;;5076897;28;20632;-74
2022/12/23 03:12:44;;;;;;;0.10;0.10;;;8.40;99.90;7.30;95809.00;;;;5079244;28;20201;-74
2022/12/23 03:15:29;;;;;;;0.10;0.10;;;8.40;99.90;7.40;95806.00;;;;5065882;28;20607;-74
2022/12/23 03:18:09;;;;;;;0.10;0.10;;;8.50;99.90;7.30;95804.00;;;;5072529;28;20229;-73
2022/12/23 03:20:49;;;;;;;0.10;0.10;;;8.50;99.90;7.30;95805.00;;;;5078461;28;20248;-74
2022/12/23 03:23:24;;;;;;;0.10;0.10;;;8.50;99.90;7.40;95810.00;;;;5081832;28;20202;-73
2022/12/23 03:26:01;;;;;;;0.10;0.10;;;8.40;99.90;7.40;95802.00;;;;5088172;28;20205;-74
2022/12/23 03:28:38;;;;;;;0.10;0.10;;;8.40;99.90;7.40;95805.00;;;;5076718;28;20788;-73
2022/12/23 03:31:12;;;;;;;0.10;0.10;;;8.50;99.90;7.50;95790.00;;;;5073654;28;20250;-73
2022/12/23 03:33:48;;;;;;;0.10;0.10;;;8.50;99.90;7.20;95647.00;;;;5073270;28;20185;-74
2022/12/23 03:36:24;;;;;;;0.10;0.10;;;8.50;99.90;7.30;95637.00;;;;5073489;28;20227;-73
2022/12/23 03:38:55;;;;;;;0.10;0.10;;;8.50;99.90;7.30;95656.00;;;;5082294;28;20217;-73
2022/12/23 03:41:30;;;;;;;0.10;0.10;;;8.50;99.90;7.20;95630.00;;;;5089460;28;20247;-73
2022/12/23 03:44:04;;;;;;;0.00;0.00;;;8.40;99.90;7.30;95822.00;;;;5075073;28;20585;-72
2022/12/23 03:46:39;;;;;;;0.10;0.10;;;8.40;99.90;7.30;95805.00;;;;5080608;28;20195;-73
2022/12/23 03:49:16;;;;;;;0.10;0.10;;;8.40;99.90;7.30;95822.00;;;;5085087;28;20593;-73
2022/12/23 03:51:53;;;;;;;0.10;0.10;;;8.40;99.90;7.20;95825.00;;;;5081412;28;20616;-73
2022/12/23 03:54:27;;;;;;;0.10;0.10;;;8.30;99.90;7.30;95838.00;;;;5074546;28;20200;-73
2022/12/23 03:57:02;;;;;;;0.10;0.10;;;8.30;99.90;7.20;95825.00;;;;5085659;28;20200;-73
2022/12/23 03:59:34;;;;;;;0.10;0.10;;;8.30;99.90;7.20;95832.00;;;;5085796;28;20238;-73
2022/12/23 04:02:09;;;;;;;0.03;0.03;;;8.30;99.90;7.20;95837.00;;;;5075163;28;20212;-74
2022/12/23 04:05:02;;;;;;;0.10;0.10;;;8.40;99.90;7.30;95831.00;;;;5081458;28;20228;-74
2022/12/23 04:07:34;;;;;;;0.10;0.10;;;8.40;99.90;7.20;95840.00;;;;5080634;28;20701;-74
2022/12/23 04:10:04;;;;;;;0.10;0.10;;;8.30;99.90;7.30;95849.00;;;;5076316;28;20693;-74
2022/12/23 04:12:32;;;;;;;0.10;0.10;;;8.40;99.90;7.30;95847.00;;;;5081817;28;20246;-74
2022/12/23 04:15:01;;;;;;;0.10;0.10;;;8.40;99.90;7.30;95847.00;;;;5076029;28;20247;-74
2022/12/23 04:17:36;;;;;;;0.10;0.10;;;8.30;99.90;7.20;95839.00;;;;5084685;28;20202;-74
2022/12/23 04:20:07;;;;;;;0.05;0.05;;;8.30;99.90;7.20;95785.00;;;;5084497;28;20217;-73
2022/12/23 04:22:35;;;;;;;0.00;0.00;;;8.40;99.90;7.20;95788.00;;;;5085274;28;20518;-74
2022/12/23 04:25:04;;;;;;;0.10;0.10;;;8.40;99.90;7.20;95782.00;;;;5080852;28;20244;-74
2022/12/23 04:27:32;;;;;;;0.10;0.10;;;8.30;99.90;7.10;95775.00;;;;5081555;28;20641;-74
2022/12/23 04:29:59;;;;;;;0.10;0.10;;;8.30;99.90;7.20;95781.00;;;;5078915;28;20778;-72
2022/12/23 04:32:27;;;;;;;0.10;0.10;;;8.30;99.90;7.20;95829.00;;;;5067294;28;20653;-73
2022/12/23 04:34:55;;;;;;;0.10;0.10;;;8.30;99.90;7.30;95818.00;;;;5073647;28;20610;-73
2022/12/23 04:37:25;;;;;;;0.03;0.03;;;8.40;99.90;7.30;95836.00;;;;5078175;28;20221;-73
2022/12/23 04:39:53;;;;;;;0.10;0.10;;;8.40;99.90;7.20;95827.00;;;;5077171;28;20622;-74
2022/12/23 04:42:20;;;;;;;0.10;0.10;;;8.40;99.90;7.30;95838.00;;;;5067015;28;20245;-74
2022/12/23 04:44:48;;;;;;;0.10;0.10;;;8.40;99.90;7.20;95825.00;;;;5081685;28;20201;-71
2022/12/23 04:47:16;;;;;;;0.05;0.05;;;8.30;99.90;7.20;95822.00;;;;5083020;28;20219;-72
2022/12/23 04:49:44;;;;;;;0.10;0.10;;;8.30;99.90;7.10;95822.00;;;;5076839;28;20673;-72
2022/12/23 04:52:12;;;;;;;0.10;0.10;;;8.20;99.90;7.10;95820.00;;;;5073683;28;20232;-72
2022/12/23 04:54:41;;;;;;;0.10;0.10;;;8.20;99.90;7.10;95825.00;;;;5078196;28;20197;-74
2022/12/23 04:57:13;;;;;;;0.10;0.10;;;8.10;99.90;7.00;95774.00;;;;5087459;28;20227;-74
2022/12/23 04:59:41;;;;;;;0.10;0.10;;;8.10;99.90;7.00;95820.00;;;;5088621;28;20220;-71
2022/12/23 05:02:10;;;;;;;0.10;0.10;;;8.10;99.90;7.00;95826.00;;;;5074495;28;20222;-71
2022/12/23 05:04:38;;;;;;;0.10;0.10;;;8.10;99.90;7.00;95839.00;;;;5084307;28;20193;-73
2022/12/23 05:07:06;;;;;;;0.00;0.00;;;8.00;99.90;7.00;95830.00;;;;5087822;28;20283;-71
2022/12/23 05:09:34;;;;;;;0.00;0.00;;;8.00;99.90;7.00;95841.00;;;;5075382;28;20624;-71
2022/12/23 05:12:04;;;;;;;0.10;0.10;;;8.00;99.90;6.90;95824.00;;;;5086526;28;20251;-71
2022/12/23 05:14:32;;;;;;;0.10;0.10;;;8.00;99.90;6.90;95825.00;;;;5088283;28;20196;-72
2022/12/23 05:17:00;;;;;;;0.10;0.10;;;8.00;99.90;6.90;95819.00;;;;5090126;28;20247;-72
2022/12/23 05:19:34;;;;;;;0.10;0.10;;;8.00;99.90;6.90;95829.00;;;;5081483;28;20220;-73
2022/12/23 05:22:02;;;;;;;0.10;0.10;;;8.00;99.90;6.90;95806.00;;;;5086118;28;20198;-73
2022/12/23 05:24:30;;;;;;;0.00;0.00;;;8.00;99.90;6.90;95834.00;;;;5083210;28;20544;-72
2022/12/23 05:26:58;;;;;;;0.00;0.00;;;8.00;99.90;6.90;95814.00;;;;5082058;28;20703;-72
2022/12/23 05:29:28;;;;;;;0.10;0.10;;;8.00;99.90;6.90;95830.00;;;;5085079;28;20227;-72
2022/12/23 05:31:56;;;;;;;0.10;0.10;;;8.00;99.90;6.90;95833.00;;;;5075236;28;20193;-72
2022/12/23 05:34:25;;;;;;;0.10;0.10;;;8.00;99.90;7.00;95827.00;;;;5071585;28;20657;-72
2022/12/23 05:36:52;;;;;;;0.10;0.10;;;8.00;99.90;7.00;95847.00;;;;5080436;28;20620;-72
2022/12/23 05:39:20;;;;;;;0.10;0.10;;;8.10;99.90;7.00;95817.00;;;;5079102;28;20216;-72
2022/12/23 05:41:48;;;;;;;0.10;0.10;;;8.10;99.90;7.10;95813.00;;;;5078208;28;20250;-72
2022/12/23 05:44:16;;;;;;;0.10;0.10;;;8.20;99.90;7.10;95810.00;;;;5074210;28;20193;-72
2022/12/23 05:46:45;;;;;;;0.10;0.10;;;8.20;99.90;7.10;95807.00;;;;5082520;28;20201;-72
2022/12/23 05:49:13;;;;;;;0.10;0.10;;;8.20;99.90;7.10;95822.00;;;;5068257;28;20217;-72
2022/12/23 05:51:41;;;;;;;0.10;0.10;;;8.20;99.90;7.20;95781.00;;;;5072911;28;20255;-71
2022/12/23 05:54:09;;;;;;;0.10;0.10;;;8.30;99.90;7.10;95802.00;;;;5073518;28;20190;-75
2022/12/23 05:56:37;;;;;;;0.10;0.10;;;8.20;99.90;7.20;95819.00;;;;5078931;28;20222;-73
2022/12/23 05:59:05;;;;;;;0.10;0.10;;;8.40;99.90;7.20;95805.00;;;;5083509;28;20592;-75
2022/12/23 06:01:33;;;;;;;0.10;0.10;;;8.30;99.90;7.20;95813.00;;;;5083786;28;20201;-75
2022/12/23 06:04:02;;;;;;;0.10;0.10;;;8.30;99.90;7.20;95813.00;;;;5073546;28;20193;-75
2022/12/23 06:06:30;;;;;;;0.10;0.10;;;8.30;99.90;7.20;95817.00;;;;5077806;28;20575;-72
2022/12/23 06:08:58;;;;;;;0.10;0.10;;;8.30;99.90;7.10;95801.00;;;;5074744;28;20693;-72
2022/12/23 06:11:27;;;;;;;0.10;0.10;;;8.30;99.90;7.10;95792.00;;;;5076441;28;20551;-75
2022/12/23 06:13:55;;;;;;;0.10;0.10;;;8.30;99.90;7.20;95832.00;;;;5081192;28;20193;-75
2022/12/23 06:16:23;;;;;;;0.10;0.10;;;8.30;99.90;7.20;95827.00;;;;5074445;28;20197;-74
2022/12/23 06:18:55;;;;;;;0.10;0.10;;;8.30;99.90;7.20;95829.00;;;;5081629;28;20235;-74
2022/12/23 06:21:25;;;;;;;0.10;0.10;;;8.30;99.90;7.20;95814.00;;;;5070866;28;20265;-74
2022/12/23 06:23:53;;;;;;;0.10;0.10;;;8.30;99.90;7.20;95828.00;;;;5080655;28;20586;-70
2022/12/23 06:26:21;;;;;;;0.10;0.10;;;8.30;99.90;7.20;95865.00;;;;5078528;28;20660;-71
2022/12/23 06:28:49;;;;;;;0.10;0.10;;;8.30;99.90;7.20;95846.00;;;;5082789;28;20221;-71
2022/12/23 06:31:17;;;;;;;0.10;0.10;;;8.30;99.90;7.20;95864.00;;;;5080382;28;20198;-71
2022/12/23 06:33:45;;;;;;;0.10;0.10;;;8.30;99.90;7.20;95865.00;;;;5069566;28;20509;-71
2022/12/23 06:36:13;;;;;;;0.10;0.10;;;8.40;99.90;7.30;95877.00;;;;5068084;28;20215;-73
2022/12/23 06:38:42;;;;;;;0.10;0.10;;;8.40;99.90;7.30;95891.00;;;;5074061;28;20197;-74
2022/12/23 06:41:10;;;;;;;0.10;0.10;;;8.40;99.90;7.30;95881.00;;;;5069732;28;20242;-71
2022/12/23 06:43:38;;;;;;;0.10;0.10;;;8.40;99.90;7.20;95884.00;;;;5078404;28;20194;-72
2022/12/23 06:46:06;;;;;;;0.03;0.03;;;8.40;99.90;7.10;95716.00;;;;5071480;28;20281;-72
2022/12/23 06:48:34;;;;;;;0.10;0.10;;;8.30;99.90;7.20;95866.00;;;;5065667;28;20198;-71
2022/12/23 06:51:02;;;;;;;0.10;0.10;;;8.30;99.90;7.10;95869.00;;;;5071447;28;20201;-72
2022/12/23 06:53:30;;;;;;;0.10;0.10;;;8.20;99.90;7.10;95852.00;;;;5063836;28;20226;-73
2022/12/23 06:56:04;;;;;;;0.10;0.10;;;8.20;99.90;7.00;95856.00;;;;5060529;28;20300;-72
2022/12/23 06:58:32;;;;;;;0.10;0.10;;;8.20;99.90;7.10;95867.00;;;;5069986;28;20664;-73
2022/12/23 07:01:00;;;;;;;0.10;0.10;;;8.20;99.90;7.20;95867.00;;;;5080415;28;20221;-73
2022/12/23 07:03:28;;;;;;;0.10;0.10;;;8.30;99.90;7.20;95880.00;;;;5071176;28;20194;-73
2022/12/23 07:05:57;;;;;;;0.10;0.10;;;8.30;99.90;7.10;95877.00;;;;5084286;28;20225;-73
2022/12/23 07:08:25;;;;;;;0.10;0.10;;;8.30;99.90;7.10;95864.00;;;;5082922;28;20721;-73
2022/12/23 07:10:58;;;;;;;0.10;0.10;;;8.30;99.90;7.10;95864.00;;;;5073201;28;20217;-74
2022/12/23 07:13:28;;;;;;;0.10;0.10;;;8.20;99.90;7.00;95860.00;;;;5076755;28;20202;-75
2022/12/23 07:15:56;;;;;;;0.10;0.10;;;8.20;99.90;7.00;95863.00;;;;5080559;28;20600;-74
2022/12/23 07:18:25;;;;;;;0.10;0.10;;;8.10;99.90;7.00;95834.00;;;;5080634;28;20198;-74
2022/12/23 07:20:53;;;;;;;0.00;0.00;;;8.10;99.90;7.00;95845.00;;;;5071725;28;20227;-74
2022/12/23 07:23:21;;;;;;;0.10;0.10;;;8.10;99.90;7.00;95868.00;;;;5071700;28;20227;-75
2022/12/23 07:25:49;;;;;;;0.10;0.10;;;8.10;99.90;6.90;95872.00;;;;5077269;28;20227;-74
2022/12/23 07:28:17;;;;;;;0.10;0.10;;;8.10;99.90;6.90;95872.00;;;;5074373;28;20202;-75
2022/12/23 07:30:46;;;;;;;0.00;0.00;;;8.10;99.90;6.90;95903.00;;;;5076152;28;20224;-74
2022/12/23 07:33:14;;;;;;;0.10;0.10;;;8.10;99.90;6.90;95877.00;;;;5057309;28;20190;-74
2022/12/23 07:35:42;;;;;;;0.10;0.10;;;8.10;99.90;7.00;95887.00;;;;5087507;28;20202;-74
2022/12/23 07:38:10;;;;;;;0.10;0.10;;;8.10;99.90;7.10;95909.00;;;;5085308;28;20687;-74
2022/12/23 07:40:38;;;;;;;0.10;0.10;;;8.20;99.90;7.10;95886.00;;;;5077280;28;20224;-74
2022/12/23 07:43:06;;;;;;;0.00;0.00;;;8.20;99.90;7.10;95895.00;;;;5082082;28;20197;-75
2022/12/23 07:45:34;;;;;;;0.00;0.00;;;8.30;99.90;7.20;95901.00;;;;5070934;28;20198;-74
2022/12/23 07:48:04;;;;;;;0.10;0.10;;;8.30;99.90;7.20;95906.00;;;;5072744;28;20535;-74
2022/12/23 07:50:32;;;;;;;0.10;0.10;;;8.30;99.90;7.20;95900.00;;;;5075120;28;20259;-74
2022/12/23 07:53:01;;;;;;;0.10;0.10;;;8.30;99.90;7.20;95908.00;;;;5086018;28;20193;-74
2022/12/23 07:55:28;;;;;;;0.10;0.10;;;8.40;99.90;7.20;95882.00;;;;5083237;28;20202;-74
2022/12/23 07:57:57;;;;;;;0.10;0.10;;;8.40;99.90;7.30;95903.00;;;;5067055;28;20194;-74
2022/12/23 08:00:25;;;;;;;0.10;0.10;;;8.40;99.90;7.30;95896.00;;;;5082721;28;20715;-74
2022/12/23 08:02:53;;;;;;;0.10;0.10;;;8.40;99.90;7.40;95917.00;;;;5069572;28;20194;-74
2022/12/23 08:05:22;;;;;;;0.10;0.10;;;8.50;99.90;7.40;95914.00;;;;5076719;28;20234;-74
2022/12/23 08:07:51;;;;;;;0.10;0.10;;;8.50;99.90;7.40;95923.00;;;;5082112;28;20208;-74
2022/12/23 08:10:19;;;;;;;0.10;0.10;;;8.50;99.90;6.90;95929.00;;;;5086232;28;20290;-77
2022/12/23 08:12:47;;;;;;;0.10;0.10;;;8.50;99.90;7.50;95926.00;;;;5082365;28;20204;-74
2022/12/23 08:15:15;;;;;;;0.10;0.10;;;8.60;99.90;7.40;95937.00;;;;5086554;28;20221;-74
2022/12/23 08:17:43;;;;;;;0.10;0.10;;;8.60;99.90;7.50;95928.00;;;;5086748;28;20198;-74
2022/12/23 08:20:12;;;;;;;0.10;0.10;;;8.60;99.90;7.40;95928.00;;;;5083506;28;20213;-74
2022/12/23 08:22:41;;;;;;;0.10;0.10;;;8.60;99.90;7.50;95931.00;;;;5081612;28;20695;-74
2022/12/23 08:25:09;;;;;;;0.10;0.10;;;8.60;99.90;7.50;95912.00;;;;5083925;28;20257;-74
2022/12/23 08:27:37;;;;;;;0.10;0.10;;;8.60;99.90;7.60;95935.00;;;;5072305;28;20201;-74
2022/12/23 08:30:07;;;;;;;0.10;0.10;;;8.70;99.90;7.60;95923.00;;;;5070957;28;20616;-74
2022/12/23 08:32:35;;;;;;;0.10;0.10;;;8.70;99.90;7.60;95927.00;;;;5073866;28;20204;-74
2022/12/23 08:35:03;;;;;;;0.10;0.10;;;8.70;99.90;7.60;95921.00;;;;5082146;28;20202;-75
2022/12/23 08:37:31;;;;;;;0.05;0.05;;;8.70;99.90;7.60;95921.00;;;;5081965;28;20204;-74
2022/12/23 08:40:00;;;;;;;0.10;0.10;;;8.80;99.90;7.70;95942.00;;;;5076267;28;20221;-74
2022/12/23 08:42:28;;;;;;;0.10;0.10;;;8.80;99.90;7.70;95919.00;;;;5075469;28;20260;-74
2022/12/23 08:44:56;;;;;;;0.00;0.00;;;8.80;99.90;7.70;95895.00;;;;5082710;28;20246;-75
2022/12/23 08:47:24;;;;;;;0.10;0.10;;;8.80;99.90;7.80;95915.00;;;;5081374;28;20280;-74
2022/12/23 08:49:52;;;;;;;0.10;0.10;;;8.90;99.90;7.80;95922.00;;;;5083761;28;21479;-74
2022/12/23 08:52:20;;;;;;;0.10;0.10;;;8.90;99.90;7.80;95932.00;;;;5085322;28;20201;-74
2022/12/23 08:54:48;;;;;;;0.10;0.10;;;8.90;99.90;7.90;95946.00;;;;5085286;28;20209;-74
2022/12/23 08:57:17;;;;;;;0.10;0.10;;;9.00;99.90;7.90;95956.00;;;;5086558;28;20243;-75
2022/12/23 08:59:45;;;;;;;0.10;0.10;;;9.00;99.90;7.90;95931.00;;;;5084495;28;20652;-74
2022/12/23 09:02:13;;;;;;;0.10;0.10;;;9.00;99.90;7.90;95947.00;;;;5080228;28;20193;-74
2022/12/23 09:04:42;;;;;;;0.10;0.10;;;9.00;99.90;7.90;95994.00;;;;5080285;28;20626;-74
2022/12/23 09:07:10;;;;;;;0.10;0.10;;;9.00;99.90;8.00;95998.00;;;;5084124;28;20201;-73
2022/12/23 09:09:38;;;;;;;0.10;0.10;;;9.10;99.90;8.00;96010.00;;;;5085980;28;20749;-72
2022/12/23 09:12:06;;;;;;;0.10;0.10;;;9.10;99.90;8.10;96021.00;;;;5084104;28;20197;-73
2022/12/23 09:14:36;;;;;;;0.00;0.00;;;9.10;99.90;8.10;96030.00;;;;5087844;28;20197;-72
2022/12/23 09:17:04;;;;;;;0.00;0.00;;;9.20;99.90;8.10;96039.00;;;;5083784;28;20201;-72
2022/12/23 09:19:32;;;;;;;0.10;0.10;;;9.20;99.90;8.20;96032.00;;;;5082413;28;20221;-73
2022/12/23 09:22:00;;;;;;;0.10;0.10;;;9.20;99.90;8.10;96042.00;;;;5087527;28;20734;-73
2022/12/23 09:24:28;;;;;;;0.10;0.10;;;9.20;99.90;8.20;96067.00;;;;5083591;28;20201;-73
2022/12/23 09:26:56;;;;;;;0.10;0.10;;;9.20;99.90;8.30;96053.00;;;;5088820;28;20193;-73
2022/12/23 09:29:23;;;;;;;0.10;0.10;;;9.30;99.90;8.30;96057.00;;;;5084142;28;20221;-73
2022/12/23 09:31:53;;;;;;;0.00;0.00;;;9.40;99.90;8.40;96053.00;;;;5074483;28;20229;-73
2022/12/23 09:34:21;;;;;;;0.00;0.00;;;9.40;99.90;8.40;96039.00;;;;5078008;28;20247;-74
2022/12/23 09:36:49;;;;;;;0.10;0.10;;;9.40;99.90;8.40;96023.00;;;;5079464;28;20232;-73
2022/12/23 09:39:22;;;;;;;0.10;0.10;;;9.50;99.90;8.50;96034.00;;;;5078013;28;20249;-73
2022/12/23 09:42:05;;;;;;;0.10;0.10;;;9.50;99.90;8.30;95744.00;;;;5078333;28;20276;-73
2022/12/23 09:45:02;;;;;;;0.00;0.00;;;9.60;99.90;8.40;95762.00;;;;5084273;28;20554;-72
2022/12/23 09:47:33;;;;;;;0.10;0.10;;;9.60;99.90;8.50;95787.00;;;;5079106;28;20254;-72
2022/12/23 09:50:10;;;;;;;0.10;0.10;;;9.70;99.90;8.50;95788.00;;;;5082078;28;20273;-73
2022/12/23 09:52:49;;;;;;;0.10;0.10;;;9.80;99.90;8.60;95774.00;;;;5087239;28;20263;-72
2022/12/23 09:55:20;;;;;;;0.10;0.10;;;9.80;99.90;8.70;95793.00;;;;5076793;28;20255;-72
2022/12/23 09:57:59;;;;;;;0.10;0.10;;;9.80;99.90;8.70;95775.00;;;;5088960;28;20207;-73
2022/12/23 10:00:35;;;;;;;0.10;0.10;;;9.90;99.90;8.70;95775.00;;;;5080823;28;20255;-74
2022/12/23 10:03:17;;;;;;;0.10;0.10;;;9.90;99.90;8.80;95947.00;;;;5072171;28;20669;-73
2022/12/23 10:06:02;;;;;;;0.10;0.10;;;9.90;99.90;8.80;95906.00;;;;5080437;28;20197;-73
2022/12/23 10:08:36;;;;;;;0.10;0.10;;;9.90;99.90;8.80;95985.00;;;;5073699;28;20189;-73
2022/12/23 10:11:15;;;;;;;0.10;0.10;;;9.90;99.90;8.90;96013.00;;;;5082700;28;20217;-73
2022/12/23 10:13:48;;;;;;;0.00;0.00;;;9.90;99.90;8.90;96030.00;;;;5083743;28;20717;-72
2022/12/23 10:16:20;;;;;;;0.10;0.10;;;9.90;99.90;8.60;96006.00;;;;5069967;28;20556;-73
2022/12/23 10:18:59;;;;;;;0.00;0.00;;;9.90;99.90;8.90;96007.00;;;;5083767;28;20221;-73
2022/12/23 10:21:34;;;;;;;0.05;0.05;;;9.90;99.90;9.00;95979.00;;;;5072488;28;20197;-73
2022/12/23 10:24:12;;;;;;;0.00;0.00;;;10.00;99.90;9.10;96006.00;;;;5083092;28;20207;-73
2022/12/23 10:26:52;;;;;;;0.10;0.10;;;10.10;99.90;9.10;96000.00;;;;5073531;28;20198;-73
2022/12/23 10:29:23;;;;;;;0.10;0.10;;;10.10;99.90;9.20;95983.00;;;;5073700;28;20562;-73
2022/12/23 10:32:07;;;;;;;0.10;0.10;;;10.20;99.90;9.20;95983.00;;;;5067612;28;20693;-73
2022/12/23 10:34:52;;;;;;;0.10;0.10;;;10.20;99.90;9.20;95995.00;;;;5078882;28;20197;-73
2022/12/23 10:37:32;;;;;;;0.10;0.10;;;10.20;99.90;9.10;95984.00;;;;5078431;28;20200;-72
2022/12/23 10:40:16;;;;;;;0.10;0.10;;;10.10;99.90;9.00;95982.00;;;;5082894;28;20638;-73
2022/12/23 10:43:01;;;;;;;0.10;0.10;;;10.10;99.90;9.00;95985.00;;;;5077170;28;20197;-73
2022/12/23 10:45:50;;;;;;;0.10;0.10;;;10.10;99.90;9.10;96004.00;;;;5080344;28;20201;-73
2022/12/23 10:48:36;;;;;;;0.10;0.10;;;10.10;99.90;9.20;95995.00;;;;5074445;28;20193;-73
2022/12/23 10:51:14;;;;;;;0.10;0.10;;;10.10;99.90;9.30;95995.00;;;;5082465;28;20275;-73
2022/12/23 10:53:51;;;;;;;0.10;0.10;;;10.20;99.90;9.30;95998.00;;;;5082725;28;20201;-73
2022/12/23 10:56:21;;;;;;;0.10;0.10;;;10.30;99.90;9.40;96000.00;;;;5066591;28;20231;-73
2022/12/23 10:58:54;;;;;;;0.10;0.10;;;10.30;99.90;9.30;96009.00;;;;5079619;28;20216;-73
2022/12/23 11:01:24;;;;;;;0.10;0.10;;;10.30;99.90;9.40;95993.00;;;;5077291;28;20197;-72
2022/12/23 11:04:04;;;;;;;0.00;0.00;;;10.40;99.90;9.30;96004.00;;;;5074108;28;20221;-73
2022/12/23 11:06:40;;;;;;;0.10;0.10;;;10.30;99.90;9.30;95986.00;;;;5084083;28;20247;-73
2022/12/23 11:09:17;;;;;;;0.10;0.10;;;10.30;99.90;9.30;95993.00;;;;5079112;28;20929;-73
2022/12/23 11:11:59;;;;;;;0.05;0.05;;;10.30;99.90;9.30;96002.00;;;;5078672;28;20604;-73
2022/12/23 11:14:37;;;;;;;0.10;0.10;;;10.20;99.90;9.30;95991.00;;;;5068069;28;20288;-71
2022/12/23 11:17:19;;;;;;;0.00;0.00;;;10.20;99.90;9.30;95989.00;;;;5079290;28;20541;-72
2022/12/23 11:19:47;;;;;;;0.10;0.10;;;10.20;99.90;9.20;96012.00;;;;5076055;28;20213;-72
2022/12/23 11:22:25;;;;;;;0.10;0.10;;;10.20;99.90;9.10;96000.00;;;;5075382;28;20197;-72
2022/12/23 11:24:53;;;;;;;0.10;0.10;;;10.20;99.90;9.20;96004.00;;;;5078064;28;20193;-73
2022/12/23 11:27:21;;;;;;;0.10;0.10;;;10.20;99.90;9.10;95987.00;;;;5085986;28;20202;-73
2022/12/23 11:29:54;;;;;;;0.10;0.10;;;10.10;99.90;9.00;95991.00;;;;5073444;28;20225;-73
2022/12/23 11:32:27;;;;;;;0.10;0.10;;;10.10;99.90;9.00;95988.00;;;;5064234;28;20619;-73
2022/12/23 11:34:56;;;;;;;0.03;0.03;;;10.10;99.90;9.00;95986.00;;;;5079206;28;20284;-73
2022/12/23 11:37:34;;;;;;;0.10;0.10;;;10.00;99.90;9.00;95974.00;;;;5083086;28;20200;-73
2022/12/23 11:40:06;;;;;;;0.10;0.10;;;10.00;99.90;9.00;95964.00;;;;5082229;28;20221;-73
2022/12/23 11:42:35;;;;;;;0.00;0.00;;;10.00;99.90;9.00;95959.00;;;;5085828;28;20201;-73
2022/12/23 11:45:08;;;;;;;0.10;0.10;;;10.00;99.90;9.00;95954.00;;;;5076906;28;20725;-73
2022/12/23 11:47:39;;;;;;;0.10;0.10;;;10.00;99.90;9.00;95964.00;;;;5087960;28;20198;-73
2022/12/23 11:50:32;;;;;;;0.10;0.10;;;10.00;99.90;8.90;95980.00;;;;5083921;28;20249;-73
2022/12/23 11:53:22;;;;;;;0.10;0.10;;;10.10;99.90;9.20;95962.00;;;;5090534;28;20213;-73
2022/12/23 11:56:00;;;;;;;0.10;0.10;;;10.20;99.90;9.40;95973.00;;;;5080248;28;20247;-73
2022/12/23 11:58:30;;;;;;;0.05;0.05;;;10.40;99.90;9.60;95979.00;;;;5089559;28;20213;-74